Time;durP1;ratioP1;P1;durP2;ratioP2;P2;SDS_P1;SDS_P2;PMS_P1;PMS_P2;Temp;Humidity;BMP_temperature;BMP_pressure;BME280_temperature;BME280_humidity;BME280_pressure;Samples;Min_cycle;Max_cycle;Signal;HPM_P1;HPM_P2
2024/01/16 00:00:08;;;;;;;9.80;9.50;;;-0.40;99.90;;;;;;6228031;23;20217;-81
2024/01/16 00:02:36;;;;;;;9.57;9.27;;;-0.50;99.90;;;;;;6235947;22;20198;-80
2024/01/16 00:05:04;;;;;;;9.90;9.60;;;-0.40;99.90;;;;;;6240678;23;20225;-81
2024/01/16 00:07:34;;;;;;;9.83;9.53;;;-0.40;99.90;;;;;;6239695;23;20194;-80
2024/01/16 00:10:02;;;;;;;9.53;9.23;;;-0.50;99.90;;;;;;6237984;23;20250;-80
2024/01/16 00:12:29;;;;;;;9.60;9.30;;;-0.40;99.90;;;;;;6232280;22;20235;-80
2024/01/16 00:14:56;;;;;;;9.70;9.40;;;-0.40;99.90;;;;;;6230831;23;20208;-80
2024/01/16 00:17:23;;;;;;;9.47;9.17;;;-0.50;99.90;;;;;;6229871;23;20194;-80
2024/01/16 00:19:51;;;;;;;9.70;9.40;;;-0.50;99.90;;;;;;6229262;23;20210;-81
2024/01/16 00:22:18;;;;;;;9.77;9.47;;;-0.50;99.90;;;;;;6230344;22;20210;-81
2024/01/16 00:24:46;;;;;;;9.70;9.40;;;-0.50;99.90;;;;;;6229041;23;20202;-81
2024/01/16 00:27:14;;;;;;;9.53;9.23;;;-0.50;99.90;;;;;;6228474;23;20186;-81
2024/01/16 00:29:41;;;;;;;10.00;9.70;;;-0.50;99.90;;;;;;6228677;23;20197;-81
2024/01/16 00:32:08;;;;;;;9.77;9.47;;;-0.50;99.90;;;;;;6229184;23;20202;-81
2024/01/16 00:34:35;;;;;;;9.67;9.37;;;-0.50;99.90;;;;;;6228891;22;20213;-81
2024/01/16 00:37:03;;;;;;;9.70;9.40;;;-0.60;99.90;;;;;;6228336;23;20205;-81
2024/01/16 00:39:30;;;;;;;10.10;9.80;;;-0.50;99.90;;;;;;6228331;23;20292;-81
2024/01/16 00:41:59;;;;;;;9.93;9.63;;;-0.60;99.90;;;;;;6230809;23;20203;-81
2024/01/16 00:44:26;;;;;;;9.57;9.27;;;-0.50;99.90;;;;;;6235202;22;20205;-81
2024/01/16 00:46:53;;;;;;;9.50;9.20;;;-0.50;99.90;;;;;;6233609;23;20217;-81
2024/01/16 00:49:20;;;;;;;9.53;9.23;;;-0.60;99.90;;;;;;6230835;23;20202;-80
2024/01/16 00:51:47;;;;;;;9.57;9.27;;;-0.60;99.90;;;;;;6229332;23;20200;-81
2024/01/16 00:54:14;;;;;;;9.50;9.20;;;-0.60;99.90;;;;;;6227877;22;20213;-81
2024/01/16 00:56:43;;;;;;;9.80;9.50;;;-0.60;99.90;;;;;;6228037;23;20202;-80
2024/01/16 00:59:12;;;;;;;9.57;9.27;;;-0.60;99.90;;;;;;6227810;23;20207;-81
2024/01/16 01:01:39;;;;;;;9.70;9.40;;;-0.60;99.90;;;;;;6229205;23;20206;-81
2024/01/16 01:04:06;;;;;;;9.87;9.57;;;-0.50;99.90;;;;;;6228778;22;20205;-81
2024/01/16 01:06:33;;;;;;;10.10;9.80;;;-0.50;99.90;;;;;;6228810;23;20199;-81
2024/01/16 01:09:00;;;;;;;9.73;9.43;;;-0.50;99.90;;;;;;6228723;23;20257;-81
2024/01/16 01:11:28;;;;;;;9.67;9.37;;;-0.60;99.90;;;;;;6228501;23;20203;-81
2024/01/16 01:13:55;;;;;;;9.57;9.27;;;-0.60;99.90;;;;;;6228947;22;20206;-80
2024/01/16 01:16:24;;;;;;;9.77;9.47;;;-0.60;99.90;;;;;;6230075;23;20214;-81
2024/01/16 01:18:51;;;;;;;9.93;9.63;;;-0.60;99.90;;;;;;6233545;23;20198;-81
2024/01/16 01:21:18;;;;;;;10.07;9.77;;;-0.60;99.90;;;;;;6232741;23;20206;-81
2024/01/16 01:23:45;;;;;;;9.70;9.40;;;-0.60;99.90;;;;;;6231601;22;20217;-81
2024/01/16 01:26:13;;;;;;;9.80;9.50;;;-0.70;99.90;;;;;;6231870;23;20203;-80
2024/01/16 01:28:41;;;;;;;9.70;9.40;;;-0.70;99.90;;;;;;6229728;23;20198;-81
2024/01/16 01:31:10;;;;;;;9.83;9.53;;;-0.70;99.90;;;;;;6229383;23;20199;-81
2024/01/16 01:33:39;;;;;;;9.90;9.60;;;-0.70;99.90;;;;;;6229172;22;20254;-81
2024/01/16 01:36:06;;;;;;;9.50;9.20;;;-0.70;99.90;;;;;;6229086;23;20213;-81
2024/01/16 01:38:34;;;;;;;9.83;9.53;;;-0.70;99.90;;;;;;6231643;23;20251;-81
2024/01/16 01:41:01;;;;;;;9.63;9.33;;;-0.70;99.90;;;;;;6241402;23;20211;-81
2024/01/16 01:43:28;;;;;;;9.67;9.37;;;-0.70;99.90;;;;;;6239799;22;20206;-80
2024/01/16 01:46:10;;;;;;;9.90;9.60;;;-0.70;99.90;;;;;;6240455;23;20195;-81
2024/01/16 01:48:41;;;;;;;9.90;9.60;;;-0.60;99.90;;;;;;6239189;23;20288;-81
2024/01/16 01:51:08;;;;;;;10.00;9.70;;;-0.70;99.90;;;;;;6235867;23;20199;-80
2024/01/16 01:53:37;;;;;;;10.43;10.13;;;-0.60;99.90;;;;;;6231043;22;20214;-80
2024/01/16 01:56:09;;;;;;;10.17;9.87;;;-0.70;99.90;;;;;;6230716;23;20197;-79
2024/01/16 01:58:38;;;;;;;9.97;9.67;;;-0.70;99.90;;;;;;6231726;23;20202;-80
2024/01/16 02:01:07;;;;;;;9.77;9.47;;;-0.60;99.90;;;;;;6230630;23;20213;-80
2024/01/16 02:03:43;;;;;;;9.87;9.57;;;-0.70;99.90;;;;;;6230719;22;20262;-79
2024/01/16 02:06:12;;;;;;;10.07;9.77;;;-0.70;99.90;;;;;;6230604;23;20182;-80
2024/01/16 02:08:40;;;;;;;10.00;9.70;;;-0.70;99.90;;;;;;6231113;23;20226;-81
2024/01/16 02:11:08;;;;;;;9.90;9.60;;;-0.70;99.90;;;;;;6230663;23;20206;-80
2024/01/16 02:13:35;;;;;;;10.10;9.80;;;-0.70;99.90;;;;;;6231385;22;20206;-80
2024/01/16 02:16:03;;;;;;;10.03;9.73;;;-0.70;99.90;;;;;;6231051;23;20987;-80
2024/01/16 02:18:30;;;;;;;9.73;9.43;;;-0.70;99.90;;;;;;6237027;23;20175;-80
2024/01/16 02:21:04;;;;;;;9.87;9.57;;;-0.70;99.90;;;;;;6242622;23;20209;-79
2024/01/16 02:23:34;;;;;;;9.90;9.60;;;-0.80;99.90;;;;;;6245030;22;20203;-80
2024/01/16 02:26:03;;;;;;;9.80;9.50;;;-0.70;99.90;;;;;;6244127;23;20190;-80
2024/01/16 02:28:30;;;;;;;9.47;9.17;;;-0.80;99.90;;;;;;6244958;23;20203;-80
2024/01/16 02:30:57;;;;;;;9.77;9.47;;;-0.80;99.90;;;;;;6243305;23;20209;-80
2024/01/16 02:33:24;;;;;;;9.30;9.00;;;-0.80;99.90;;;;;;6232988;22;20198;-80
2024/01/16 02:35:52;;;;;;;9.90;9.60;;;-0.70;99.90;;;;;;6228265;23;20225;-80
2024/01/16 02:38:19;;;;;;;9.93;9.63;;;-0.70;99.90;;;;;;6228603;23;20214;-80
2024/01/16 02:40:47;;;;;;;9.90;9.60;;;-0.80;99.90;;;;;;6228176;23;20206;-81
2024/01/16 02:43:15;;;;;;;9.93;9.63;;;-0.70;99.90;;;;;;6228035;22;20206;-80
2024/01/16 02:45:42;;;;;;;9.77;9.47;;;-0.80;99.90;;;;;;6227759;23;20269;-80
2024/01/16 02:48:09;;;;;;;10.00;9.70;;;-0.70;99.90;;;;;;6228588;23;20217;-80
2024/01/16 02:50:39;;;;;;;10.00;9.70;;;-0.80;99.90;;;;;;6227439;23;20217;-80
2024/01/16 02:53:07;;;;;;;10.07;9.77;;;-0.80;99.90;;;;;;6227583;22;20238;-80
2024/01/16 02:55:34;;;;;;;9.77;9.47;;;-0.80;99.90;;;;;;6227795;23;20234;-80
2024/01/16 02:58:03;;;;;;;9.73;9.43;;;-0.80;99.90;;;;;;6228397;23;20205;-81
2024/01/16 03:00:30;;;;;;;9.63;9.33;;;-0.70;99.90;;;;;;6227803;23;20253;-80
2024/01/16 03:02:57;;;;;;;9.60;9.30;;;-0.70;99.90;;;;;;6227297;22;20207;-80
2024/01/16 03:05:24;;;;;;;9.80;9.50;;;-0.70;99.90;;;;;;6228000;23;20237;-80
2024/01/16 03:07:52;;;;;;;9.73;9.43;;;-0.70;99.90;;;;;;6227249;23;20201;-80
2024/01/16 03:10:19;;;;;;;9.53;9.23;;;-0.70;99.90;;;;;;6227681;23;20197;-80
2024/01/16 03:12:47;;;;;;;9.70;9.40;;;-0.70;99.90;;;;;;6226571;22;20210;-80
2024/01/16 03:15:15;;;;;;;9.53;9.23;;;-0.70;99.90;;;;;;6227391;23;20208;-80
2024/01/16 03:17:43;;;;;;;9.60;9.30;;;-0.70;99.90;;;;;;6227813;23;20197;-80
2024/01/16 03:20:11;;;;;;;9.70;9.40;;;-0.80;99.90;;;;;;6227952;23;20213;-80
2024/01/16 03:22:39;;;;;;;9.67;9.37;;;-0.70;99.90;;;;;;6227253;22;20224;-80
2024/01/16 03:25:09;;;;;;;9.33;9.03;;;-0.70;99.90;;;;;;6238756;22;20246;-79
2024/01/16 03:27:36;;;;;;;8.97;8.70;;;-0.80;99.90;;;;;;6249936;22;20179;-79
2024/01/16 03:30:04;;;;;;;9.57;9.27;;;-0.80;99.90;;;;;;6249498;22;20182;-79
2024/01/16 03:32:33;;;;;;;8.87;8.67;;;-0.80;99.90;;;;;;6249816;22;20190;-79
2024/01/16 03:35:01;;;;;;;9.37;9.07;;;-0.80;99.90;;;;;;6250053;22;20239;-80
2024/01/16 03:37:28;;;;;;;9.77;9.47;;;-0.80;99.90;;;;;;6250293;22;20184;-79
2024/01/16 03:39:56;;;;;;;9.83;9.53;;;-0.80;99.90;;;;;;6250054;22;20185;-80
2024/01/16 03:42:24;;;;;;;9.60;9.30;;;-0.80;99.90;;;;;;6249745;22;20194;-80
2024/01/16 03:44:51;;;;;;;9.40;9.10;;;-0.80;99.90;;;;;;6249577;22;20186;-79
2024/01/16 03:47:18;;;;;;;9.47;9.17;;;-0.80;99.90;;;;;;6249658;22;20186;-79
2024/01/16 03:49:47;;;;;;;9.50;9.20;;;-0.80;99.90;;;;;;6249982;22;20210;-78
2024/01/16 03:52:14;;;;;;;9.90;9.60;;;-0.80;99.90;;;;;;6249826;22;20194;-78
2024/01/16 03:54:42;;;;;;;9.50;9.20;;;-0.90;99.90;;;;;;6249476;22;20174;-80
2024/01/16 03:57:09;;;;;;;9.33;9.03;;;-0.90;99.90;;;;;;6249744;22;20173;-81
2024/01/16 03:59:38;;;;;;;9.23;8.93;;;-0.90;99.90;;;;;;6249788;22;20190;-79
2024/01/16 04:02:06;;;;;;;9.80;9.50;;;-0.90;99.90;;;;;;6249490;22;20190;-80
2024/01/16 04:04:33;;;;;;;9.50;9.20;;;-0.90;99.90;;;;;;6246800;22;20229;-81
2024/01/16 04:07:02;;;;;;;9.57;9.27;;;-0.90;99.90;;;;;;6231649;23;20248;-81
2024/01/16 04:09:30;;;;;;;9.37;9.07;;;-0.90;99.90;;;;;;6231342;23;20229;-81
2024/01/16 04:11:57;;;;;;;9.37;9.07;;;-0.90;99.90;;;;;;6231558;23;20221;-80
2024/01/16 04:14:24;;;;;;;9.50;9.20;;;-0.90;99.90;;;;;;6230734;22;20221;-81
2024/01/16 04:16:52;;;;;;;9.27;8.97;;;-0.90;99.90;;;;;;6230508;23;20248;-81
2024/01/16 04:19:19;;;;;;;9.40;9.10;;;-0.90;99.90;;;;;;6230679;23;20206;-81
2024/01/16 04:21:46;;;;;;;9.40;9.10;;;-0.90;99.90;;;;;;6231068;23;20213;-81
2024/01/16 04:24:15;;;;;;;9.77;9.47;;;-0.90;99.90;;;;;;6229742;22;20202;-81
2024/01/16 04:26:42;;;;;;;9.47;9.17;;;-0.90;99.90;;;;;;6230897;23;20201;-81
2024/01/16 04:29:11;;;;;;;9.53;9.23;;;-0.90;99.90;;;;;;6229890;23;20205;-81
2024/01/16 04:31:41;;;;;;;9.30;9.00;;;-0.90;99.90;;;;;;6229072;23;20206;-81
2024/01/16 04:34:08;;;;;;;9.40;9.10;;;-0.90;99.90;;;;;;6232503;22;20208;-81
2024/01/16 04:36:36;;;;;;;9.40;9.10;;;-0.90;99.90;;;;;;6237707;23;20187;-82
2024/01/16 04:39:04;;;;;;;9.17;8.87;;;-0.90;99.90;;;;;;6236679;23;20199;-81
2024/01/16 04:41:32;;;;;;;9.20;8.90;;;-0.90;99.90;;;;;;6236929;23;20216;-81
2024/01/16 04:44:00;;;;;;;9.43;9.13;;;-0.90;99.90;;;;;;6234467;22;20224;-81
2024/01/16 04:46:27;;;;;;;9.30;9.00;;;-0.90;99.90;;;;;;6233574;23;20205;-82
2024/01/16 04:48:56;;;;;;;8.90;8.70;;;-0.90;99.90;;;;;;6231251;23;20221;-81
2024/01/16 04:51:23;;;;;;;9.13;8.83;;;-0.90;99.90;;;;;;6229294;23;20234;-81
2024/01/16 04:53:50;;;;;;;9.00;8.77;;;-0.90;99.90;;;;;;6229503;22;20207;-81
2024/01/16 04:56:17;;;;;;;9.20;8.90;;;-0.90;99.90;;;;;;6228799;23;20201;-82
2024/01/16 04:58:46;;;;;;;9.33;9.03;;;-0.90;99.90;;;;;;6228988;23;20193;-81
2024/01/16 05:01:14;;;;;;;9.43;9.13;;;-0.90;99.90;;;;;;6228758;23;20206;-81
2024/01/16 05:03:41;;;;;;;9.40;9.10;;;-0.90;99.90;;;;;;6229066;22;20201;-81
2024/01/16 05:06:15;;;;;;;9.47;9.17;;;-0.90;99.90;;;;;;6229239;23;20198;-81
2024/01/16 05:08:42;;;;;;;9.20;8.90;;;-0.90;99.90;;;;;;6228795;23;20234;-81
2024/01/16 05:11:10;;;;;;;9.40;9.10;;;-0.90;99.90;;;;;;6228878;23;20193;-82
2024/01/16 05:13:37;;;;;;;9.13;8.83;;;-0.90;99.90;;;;;;6228246;22;20233;-83
2024/01/16 05:16:07;;;;;;;9.60;9.30;;;-0.90;99.90;;;;;;6230175;23;20198;-81
2024/01/16 05:18:34;;;;;;;9.50;9.20;;;-0.90;99.90;;;;;;6230839;23;20256;-81
2024/01/16 05:21:02;;;;;;;9.33;9.03;;;-1.00;99.90;;;;;;6229413;23;20225;-82
2024/01/16 05:23:29;;;;;;;9.47;9.17;;;-0.90;99.90;;;;;;6229263;22;20267;-82
2024/01/16 05:25:56;;;;;;;9.70;9.40;;;-1.00;99.90;;;;;;6228589;23;20195;-83
2024/01/16 05:28:24;;;;;;;9.20;8.90;;;-1.00;99.90;;;;;;6229323;23;20206;-81
2024/01/16 05:30:51;;;;;;;9.30;9.00;;;-1.00;99.90;;;;;;6228599;23;20267;-81
2024/01/16 05:33:20;;;;;;;9.03;8.77;;;-1.00;99.90;;;;;;6228535;22;20261;-81
2024/01/16 05:35:47;;;;;;;8.80;8.60;;;-1.10;99.90;;;;;;6229138;23;20210;-81
2024/01/16 05:38:14;;;;;;;9.37;9.07;;;-1.10;99.90;;;;;;6232004;23;20223;-81
2024/01/16 05:40:41;;;;;;;9.03;8.77;;;-1.10;99.90;;;;;;6231042;23;20206;-81
2024/01/16 05:43:08;;;;;;;9.17;8.87;;;-1.10;99.90;;;;;;6235444;22;20198;-81
2024/01/16 05:45:36;;;;;;;9.07;8.77;;;-1.10;99.90;;;;;;6230976;23;20214;-81
2024/01/16 05:48:03;;;;;;;8.97;8.77;;;-1.20;99.90;;;;;;6229720;23;20224;-81
2024/01/16 05:50:41;;;;;;;9.23;8.93;;;-1.20;99.90;;;;;;6232027;23;20255;-81
2024/01/16 05:53:15;;;;;;;8.90;8.70;;;-1.20;99.90;;;;;;6225845;22;20293;-84
2024/01/16 05:55:54;;;;;;;8.60;8.40;;;-1.20;99.90;;;;;;6234786;22;20211;-84
2024/01/16 05:58:38;;;;;;;9.00;8.80;;;-1.20;99.90;;;;;;6250071;22;20190;-86
2024/01/16 06:01:08;;;;;;;8.90;8.70;;;-1.20;99.90;;;;;;6247695;22;20324;-85
2024/01/16 06:03:49;;;;;;;8.83;8.63;;;-1.20;99.90;;;;;;6246358;22;20191;-85
2024/01/16 06:06:44;;;;;;;9.43;9.13;;;-1.20;99.90;;;;;;6247735;23;20181;-85
2024/01/16 06:09:15;;;;;;;9.30;9.00;;;-1.30;99.90;;;;;;6248253;22;20197;-85
2024/01/16 06:11:48;;;;;;;9.37;9.07;;;-1.20;99.90;;;;;;6232427;23;20237;-85
2024/01/16 06:14:25;;;;;;;9.23;8.93;;;-1.20;99.90;;;;;;6231673;22;20200;-85
2024/01/16 06:16:58;;;;;;;8.93;8.70;;;-1.20;99.90;;;;;;6228905;23;20247;-85
2024/01/16 06:19:30;;;;;;;8.73;8.53;;;-1.30;99.90;;;;;;6228195;23;20232;-85
2024/01/16 06:22:09;;;;;;;9.60;9.30;;;-1.30;99.90;;;;;;6227638;23;20229;-85
2024/01/16 06:25:01;;;;;;;9.10;8.80;;;-1.30;99.90;;;;;;6228142;22;20208;-85
2024/01/16 06:27:39;;;;;;;9.27;8.97;;;-1.30;99.90;;;;;;6227342;23;20209;-85
2024/01/16 06:30:21;;;;;;;9.20;8.90;;;-1.20;99.90;;;;;;6227485;23;20197;-85
2024/01/16 06:32:59;;;;;;;8.97;8.77;;;-1.20;99.90;;;;;;6247634;22;20194;-85
2024/01/16 06:35:36;;;;;;;8.80;8.60;;;-1.20;99.90;;;;;;6234670;22;20188;-85
2024/01/16 06:38:25;;;;;;;9.10;8.80;;;-1.20;99.90;;;;;;6229179;23;20197;-85
2024/01/16 06:41:00;;;;;;;9.67;9.37;;;-1.20;99.90;;;;;;6228272;23;20202;-85
2024/01/16 06:43:32;;;;;;;9.30;9.00;;;-1.10;99.90;;;;;;6226176;22;20229;-84
2024/01/16 06:46:06;;;;;;;9.23;8.93;;;-1.10;99.90;;;;;;6227248;23;20186;-85
2024/01/16 06:48:41;;;;;;;9.47;9.17;;;-1.10;99.90;;;;;;6226488;23;20190;-85
2024/01/16 06:51:10;;;;;;;9.77;9.47;;;-1.20;99.90;;;;;;6227473;23;20220;-85
2024/01/16 06:53:51;;;;;;;9.23;8.93;;;-1.10;99.90;;;;;;6226255;22;20220;-85
2024/01/16 06:56:29;;;;;;;;;;;;;;;;;;;;;
2024/01/16 06:59:04;;;;;;;9.50;9.20;;;-1.10;99.90;;;;;;6250329;22;20204;-85
2024/01/16 07:01:37;;;;;;;9.70;9.40;;;-1.10;99.90;;;;;;6239679;23;20269;-85
2024/01/16 07:04:07;;;;;;;9.60;9.30;;;-1.10;99.90;;;;;;6227562;22;20213;-84
2024/01/16 07:06:43;;;;;;;9.40;9.10;;;-1.10;99.90;;;;;;6226965;23;20194;-85
2024/01/16 07:09:20;;;;;;;9.43;9.13;;;-1.10;99.90;;;;;;6226302;23;20197;-85
2024/01/16 07:11:51;;;;;;;9.37;9.07;;;-1.10;99.90;;;;;;6226745;23;20200;-85
2024/01/16 07:14:23;;;;;;;9.57;9.27;;;-1.10;99.90;;;;;;6226840;22;20206;-85
2024/01/16 07:16:56;;;;;;;9.57;9.27;;;-1.10;99.90;;;;;;6226899;23;20194;-86
2024/01/16 07:19:33;;;;;;;9.40;9.10;;;-1.10;99.90;;;;;;6226401;23;20198;-84
2024/01/16 07:22:03;;;;;;;9.57;9.27;;;-1.10;99.90;;;;;;6226809;23;20198;-85
2024/01/16 07:24:42;;;;;;;9.83;9.53;;;-1.10;99.90;;;;;;6248128;22;20220;-86
2024/01/16 07:27:15;;;;;;;9.77;9.47;;;-1.10;99.90;;;;;;6250163;22;20185;-85
2024/01/16 07:29:55;;;;;;;;;;;;;;;;;;;;;
2024/01/16 07:32:28;;;;;;;9.80;9.50;;;-1.10;99.90;;;;;;6198622;23;20201;-84
2024/01/16 07:34:58;;;;;;;9.80;9.50;;;-1.10;99.90;;;;;;6226134;22;20201;-84
2024/01/16 07:37:32;;;;;;;9.90;9.60;;;-1.10;99.90;;;;;;6226290;23;20213;-85
2024/01/16 07:40:05;;;;;;;9.87;9.57;;;-1.10;99.90;;;;;;6226266;23;20275;-85
2024/01/16 07:42:38;;;;;;;9.80;9.50;;;-1.10;99.90;;;;;;6226751;23;20200;-85
2024/01/16 07:45:13;;;;;;;9.23;8.93;;;-1.10;99.90;;;;;;6225354;23;20200;-86
2024/01/16 07:47:43;;;;;;;9.53;9.23;;;-1.10;99.90;;;;;;6226176;23;20208;-86
2024/01/16 07:50:15;;;;;;;9.67;9.37;;;-1.10;99.90;;;;;;6225541;23;20242;-86
2024/01/16 07:52:47;;;;;;;9.70;9.40;;;-1.10;99.90;;;;;;6225713;22;20206;-85
2024/01/16 07:55:19;;;;;;;9.80;9.50;;;-1.10;99.90;;;;;;6226649;22;20234;-86
2024/01/16 07:57:51;;;;;;;9.77;9.47;;;-1.10;99.90;;;;;;6226204;23;20198;-85
2024/01/16 08:00:42;;;;;;;9.33;9.03;;;-1.10;99.90;;;;;;6225722;23;20198;-85
2024/01/16 08:03:14;;;;;;;9.70;9.40;;;-1.00;99.90;;;;;;6225952;22;20232;-85
2024/01/16 08:05:42;;;;;;;9.40;9.10;;;-1.00;99.90;;;;;;6226171;23;20232;-85
2024/01/16 08:08:11;;;;;;;9.77;9.47;;;-1.00;99.90;;;;;;6225570;23;20205;-86
2024/01/16 08:11:04;;;;;;;;;;;;;;;;;;;;;
2024/01/16 08:13:38;;;;;;;9.60;9.30;;;-0.90;99.90;;;;;;6226685;22;20202;-87
2024/01/16 08:16:20;;;;;;;9.40;9.10;;;-0.80;99.90;;;;;;6242574;23;20194;-87
2024/01/16 08:18:53;;;;;;;8.53;8.33;;;-0.80;99.90;;;;;;6250339;22;20193;-87
2024/01/16 08:21:40;;;;;;;8.80;8.60;;;-0.70;99.90;;;;;;6232540;22;20197;-87
2024/01/16 08:24:17;;;;;;;8.67;8.47;;;-0.70;99.90;;;;;;6226813;22;20201;-86
2024/01/16 08:26:51;;;;;;;8.77;8.57;;;-0.70;99.90;;;;;;6227276;23;20212;-87
2024/01/16 08:29:22;;;;;;;8.93;8.73;;;-0.70;99.90;;;;;;6226742;23;20196;-87
2024/01/16 08:32:01;;;;;;;;;;;;;;;;;;;;;
2024/01/16 08:34:40;;;;;;;8.07;7.87;;;-0.80;99.90;;;;;;6229405;22;20200;-84
2024/01/16 08:37:17;;;;;;;8.60;8.40;;;-0.80;99.90;;;;;;6228123;23;20199;-86
2024/01/16 08:39:51;;;;;;;8.50;8.30;;;-0.80;99.90;;;;;;6227335;23;20190;-86
2024/01/16 08:42:27;;;;;;;8.43;8.23;;;-0.80;99.90;;;;;;6227703;23;20217;-84
2024/01/16 08:45:07;;;;;;;8.57;8.37;;;-0.80;99.90;;;;;;6227809;22;20256;-84
2024/01/16 08:47:43;;;;;;;8.57;8.37;;;-0.80;99.90;;;;;;6227176;23;20194;-85
2024/01/16 08:50:22;;;;;;;8.63;8.43;;;-0.80;99.90;;;;;;6227317;23;20194;-85
2024/01/16 08:52:54;;;;;;;8.90;8.70;;;-0.80;99.90;;;;;;6228656;22;20204;-85
2024/01/16 08:55:35;;;;;;;8.90;8.70;;;-0.80;99.90;;;;;;6228474;22;20205;-85
2024/01/16 08:58:05;;;;;;;8.40;8.20;;;-0.80;99.90;;;;;;6227493;23;20217;-85
2024/01/16 09:00:38;;;;;;;8.40;8.20;;;-0.70;99.90;;;;;;6227543;23;20266;-85
2024/01/16 09:03:16;;;;;;;8.40;8.20;;;-0.70;99.90;;;;;;6227898;22;20214;-85
2024/01/16 09:05:51;;;;;;;8.27;8.07;;;-0.70;99.90;;;;;;6227559;23;20209;-85
2024/01/16 09:08:33;;;;;;;8.80;8.60;;;-0.70;99.90;;;;;;6247948;22;20201;-86
2024/01/16 09:11:06;;;;;;;8.70;8.50;;;-0.70;99.90;;;;;;6250572;22;20204;-85
2024/01/16 09:13:39;;;;;;;8.00;7.80;;;-0.70;99.90;;;;;;6249794;22;20243;-85
2024/01/16 09:16:07;;;;;;;8.60;8.40;;;-0.70;99.90;;;;;;6227861;23;20249;-85
2024/01/16 09:18:37;;;;;;;8.73;8.53;;;-0.60;99.90;;;;;;6227054;23;20230;-85
2024/01/16 09:21:14;;;;;;;8.40;8.20;;;-0.60;99.90;;;;;;6227583;23;20212;-85
2024/01/16 09:23:44;;;;;;;8.40;8.20;;;-0.50;99.90;;;;;;6227053;22;20293;-85
2024/01/16 09:26:22;;;;;;;8.20;8.00;;;-0.50;99.90;;;;;;6227584;23;20198;-85
2024/01/16 09:28:55;;;;;;;8.07;7.87;;;-0.50;99.90;;;;;;6227074;23;20334;-86
2024/01/16 09:31:29;;;;;;;8.30;8.10;;;-0.50;99.90;;;;;;6226402;23;20200;-85
2024/01/16 09:34:01;;;;;;;8.50;8.30;;;-0.40;99.90;;;;;;6226960;22;20269;-85
2024/01/16 09:36:32;;;;;;;8.23;8.03;;;-0.40;99.90;;;;;;6227735;23;20673;-85
2024/01/16 09:39:07;;;;;;;8.27;8.07;;;-0.30;99.90;;;;;;6227872;23;20205;-85
2024/01/16 09:41:41;;;;;;;8.67;8.47;;;-0.20;99.90;;;;;;6227448;23;20233;-85
2024/01/16 09:44:13;;;;;;;8.40;8.20;;;-0.30;99.90;;;;;;6226932;22;20202;-85
2024/01/16 09:46:52;;;;;;;8.30;8.10;;;-0.20;99.90;;;;;;6228139;23;20198;-85
2024/01/16 09:49:32;;;;;;;;;;;;;;;;;;;;;
2024/01/16 09:52:05;;;;;;;9.53;9.23;;;-0.30;99.90;;;;;;6228148;23;20234;-85
2024/01/16 09:54:37;;;;;;;9.67;9.37;;;-0.30;99.90;;;;;;6226952;22;20206;-85
2024/01/16 09:57:12;;;;;;;9.47;9.17;;;-0.30;99.90;;;;;;6228706;23;20191;-85
2024/01/16 09:59:48;;;;;;;9.27;8.97;;;-0.30;99.90;;;;;;6228723;23;20193;-85
2024/01/16 10:02:26;;;;;;;;;;;;;;;;;;;;;
2024/01/16 10:05:12;;;;;;;9.00;8.73;;;-0.30;99.90;;;;;;6228091;22;20261;-86
2024/01/16 10:07:55;;;;;;;9.30;9.00;;;-0.20;99.90;;;;;;6227977;23;20198;-85
2024/01/16 10:10:28;;;;;;;9.33;9.03;;;-0.20;99.90;;;;;;6227283;23;20202;-85
2024/01/16 10:13:03;;;;;;;9.47;9.17;;;-0.20;99.90;;;;;;6226765;22;20195;-85
2024/01/16 10:15:55;;;;;;;9.70;9.40;;;-0.20;99.90;;;;;;6226914;23;20248;-85
2024/01/16 10:18:43;;;;;;;9.20;8.90;;;-0.10;99.90;;;;;;6237754;22;20209;-85
2024/01/16 10:21:24;;;;;;;9.20;8.90;;;-0.10;99.90;;;;;;6250174;22;20208;-85
2024/01/16 10:23:57;;;;;;;9.33;9.03;;;-0.10;99.90;;;;;;6245169;22;20210;-86
2024/01/16 10:26:28;;;;;;;9.40;9.10;;;0.00;99.90;;;;;;6228827;23;20210;-85
2024/01/16 10:29:09;;;;;;;9.30;9.00;;;0.00;99.90;;;;;;6229023;23;20777;-85
2024/01/16 10:31:51;;;;;;;9.30;9.00;;;-0.10;99.90;;;;;;6228251;23;20559;-85
2024/01/16 10:34:29;;;;;;;9.40;9.10;;;-0.10;99.90;;;;;;6226934;22;20202;-85
2024/01/16 10:37:06;;;;;;;9.57;9.27;;;-0.10;99.90;;;;;;6226523;23;20193;-85
2024/01/16 10:39:39;;;;;;;9.40;9.10;;;-0.10;99.90;;;;;;6228099;23;20233;-85
2024/01/16 10:42:16;;;;;;;9.50;9.20;;;-0.10;99.90;;;;;;6227409;23;20190;-85
2024/01/16 10:44:59;;;;;;;9.00;8.70;;;-0.10;99.90;;;;;;6228211;22;20229;-85
2024/01/16 10:47:37;;;;;;;8.70;8.50;;;-0.10;99.90;;;;;;6227947;23;20254;-85
2024/01/16 10:50:41;;;;;;;9.13;8.83;;;0.00;99.90;;;;;;6226292;23;20217;-86
2024/01/16 10:53:24;;;;;;;8.77;8.57;;;0.00;99.90;;;;;;6211496;22;20209;-87
2024/01/16 10:56:25;;;;;;;8.63;8.43;;;0.10;99.90;;;;;;6229740;23;20273;-86
2024/01/16 10:59:07;;;;;;;8.37;8.17;;;0.10;99.90;;;;;;6192439;23;20198;-86
2024/01/16 11:01:42;;;;;;;8.53;8.33;;;0.20;99.90;;;;;;6230447;23;20572;-86
2024/01/16 11:04:16;;;;;;;9.37;9.07;;;0.20;99.90;;;;;;6227124;22;20207;-86
2024/01/16 11:06:55;;;;;;;9.40;9.10;;;0.30;99.90;;;;;;6228310;23;20191;-86
2024/01/16 11:09:25;;;;;;;9.00;8.80;;;0.30;99.90;;;;;;6240523;22;20178;-86
2024/01/16 11:12:03;;;;;;;9.40;9.10;;;0.40;99.90;;;;;;6245007;22;20198;-87
2024/01/16 11:14:54;;;;;;;9.30;9.00;;;0.50;99.90;;;;;;6247981;22;20195;-87
2024/01/16 11:17:26;;;;;;;9.23;8.93;;;0.50;99.90;;;;;;6250392;22;20171;-85
2024/01/16 11:19:56;;;;;;;9.43;9.13;;;0.60;99.90;;;;;;6250185;22;20179;-85
2024/01/16 11:22:37;;;;;;;9.63;9.33;;;0.60;99.90;;;;;;6239277;22;20191;-85
2024/01/16 11:25:22;;;;;;;9.50;9.20;;;0.70;99.90;;;;;;6228151;22;20198;-85
2024/01/16 11:28:14;;;;;;;9.43;9.13;;;0.70;99.90;;;;;;6229932;23;20202;-85
2024/01/16 11:30:47;;;;;;;9.57;9.27;;;0.70;99.90;;;;;;6233577;23;20215;-86
2024/01/16 11:33:59;;;;;;;9.43;9.13;;;0.70;99.90;;;;;;6232282;22;20203;-86
2024/01/16 11:37:00;;;;;;;9.17;8.87;;;0.70;99.90;;;;;;6231575;23;20187;-86
2024/01/16 11:39:51;;;;;;;9.27;8.97;;;0.80;99.90;;;;;;6227266;23;20198;-86
2024/01/16 11:43:01;;;;;;;9.30;9.00;;;0.80;99.90;;;;;;6226535;23;20205;-85
2024/01/16 11:46:01;;;;;;;8.57;8.37;;;0.80;99.90;;;;;;6225930;23;20282;-86
2024/01/16 11:48:49;;;;;;;9.10;8.80;;;0.90;99.90;;;;;;6225778;23;20191;-85
2024/01/16 11:51:30;;;;;;;8.70;8.50;;;0.90;99.90;;;;;;6226834;23;20199;-85
2024/01/16 11:53:59;;;;;;;8.80;8.60;;;0.80;99.90;;;;;;6224807;22;20195;-80
2024/01/16 11:57:08;;;;;;;9.07;8.80;;;0.80;99.90;;;;;;6248801;22;20187;-78
2024/01/16 12:00:01;;;;;;;9.20;8.90;;;0.90;99.90;;;;;;6249300;22;20187;-79
2024/01/16 12:02:52;;;;;;;8.73;8.53;;;1.10;99.90;;;;;;6249331;22;20253;-78
2024/01/16 12:05:20;;;;;;;9.00;8.80;;;1.10;99.90;;;;;;6249529;22;20183;-79
2024/01/16 12:07:49;;;;;;;9.00;8.80;;;1.20;99.90;;;;;;6249714;22;20214;-79
2024/01/16 12:10:19;;;;;;;9.13;8.83;;;1.20;99.90;;;;;;6248865;22;20175;-78
2024/01/16 12:12:47;;;;;;;9.53;9.23;;;1.20;99.90;;;;;;6249644;22;20202;-79
2024/01/16 12:15:17;;;;;;;9.20;8.90;;;1.20;99.90;;;;;;6249050;22;20238;-80
2024/01/16 12:17:58;;;;;;;9.20;8.90;;;1.30;99.90;;;;;;6248680;22;20226;-80
2024/01/16 12:20:28;;;;;;;8.93;8.73;;;1.30;99.90;;;;;;6248798;22;20247;-80
2024/01/16 12:22:59;;;;;;;8.70;8.50;;;1.40;99.90;;;;;;6249418;22;20222;-80
2024/01/16 12:25:30;;;;;;;9.50;9.20;;;1.40;99.90;;;;;;6243571;22;20195;-81
2024/01/16 12:27:58;;;;;;;8.87;8.67;;;1.40;99.90;;;;;;6247228;23;20246;-81
2024/01/16 12:30:28;;;;;;;9.33;9.03;;;1.40;99.90;;;;;;6247037;22;20202;-81
2024/01/16 12:33:08;;;;;;;9.13;8.83;;;1.40;99.90;;;;;;6231612;23;20207;-82
2024/01/16 12:35:36;;;;;;;9.23;8.93;;;1.50;99.90;;;;;;6241401;22;20199;-82
2024/01/16 12:38:06;;;;;;;9.23;8.93;;;1.50;99.90;;;;;;6235710;23;20195;-82
2024/01/16 12:40:36;;;;;;;9.53;9.23;;;1.50;99.90;;;;;;6229547;23;20195;-81
2024/01/16 12:43:04;;;;;;;8.90;8.70;;;1.50;99.90;;;;;;6229404;23;20224;-82
2024/01/16 12:45:32;;;;;;;9.23;8.93;;;1.60;99.90;;;;;;6230673;22;20198;-81
2024/01/16 12:48:03;;;;;;;9.47;9.17;;;1.60;99.90;;;;;;6231291;23;20234;-81
2024/01/16 12:50:32;;;;;;;9.10;8.80;;;1.60;99.90;;;;;;6232099;23;20198;-82
2024/01/16 12:53:04;;;;;;;9.30;9.00;;;1.60;99.90;;;;;;6232911;23;20195;-81
2024/01/16 12:55:31;;;;;;;9.40;9.10;;;1.50;99.90;;;;;;6239070;22;20203;-81
2024/01/16 12:58:17;;;;;;;9.60;9.30;;;1.50;99.90;;;;;;6240929;23;20195;-81
2024/01/16 13:00:45;;;;;;;9.43;9.13;;;1.60;99.90;;;;;;6242969;23;20222;-82
2024/01/16 13:03:20;;;;;;;9.07;8.87;;;1.50;99.90;;;;;;6243426;23;20286;-81
2024/01/16 13:05:55;;;;;;;8.77;8.57;;;1.40;99.90;;;;;;6247146;22;20206;-82
2024/01/16 13:08:24;;;;;;;9.13;8.93;;;1.30;99.90;;;;;;6248439;22;20173;-80
2024/01/16 13:11:04;;;;;;;8.80;8.60;;;1.40;99.90;;;;;;6247231;22;20191;-81
2024/01/16 13:13:33;;;;;;;8.70;8.50;;;1.40;99.90;;;;;;6242566;23;20251;-81
2024/01/16 13:16:02;;;;;;;8.77;8.57;;;1.30;99.90;;;;;;6246263;23;20215;-81
2024/01/16 13:18:30;;;;;;;9.03;8.83;;;1.30;99.90;;;;;;6245748;22;20198;-82
2024/01/16 13:20:58;;;;;;;9.90;9.60;;;1.30;99.90;;;;;;6228631;23;20198;-81
2024/01/16 13:23:27;;;;;;;9.83;9.53;;;1.40;99.90;;;;;;6229516;23;20215;-82